createdAt,value
2022-12-15T06:47:49.830Z,35.40
2022-12-15T06:50:17.253Z,36.37
2022-12-15T06:52:44.559Z,37.43
2022-12-15T06:55:11.897Z,36.97
2022-12-15T06:57:39.172Z,38.27
2022-12-15T07:00:06.988Z,38.20
2022-12-15T07:02:34.665Z,37.20
2022-12-15T07:05:02.743Z,39.80
2022-12-15T07:07:30.088Z,39.00
2022-12-15T07:09:57.657Z,37.57
2022-12-15T07:12:25.115Z,38.33
2022-12-15T07:14:53.712Z,39.37
2022-12-15T07:17:21.371Z,38.30
2022-12-15T07:19:48.675Z,38.67
2022-12-15T07:22:15.994Z,38.17
2022-12-15T07:24:43.686Z,38.77
2022-12-15T07:27:10.989Z,38.57
2022-12-15T07:29:38.276Z,37.03
2022-12-15T07:32:05.748Z,35.90
2022-12-15T07:34:33.181Z,35.97
2022-12-15T07:37:00.503Z,38.67
2022-12-15T07:39:28.224Z,38.63
2022-12-15T07:41:56.000Z,38.17
2022-12-15T07:44:23.271Z,37.90
2022-12-15T07:46:50.770Z,35.40
2022-12-15T07:49:18.266Z,36.83
2022-12-15T07:51:45.811Z,36.07
2022-12-15T07:54:15.581Z,38.70
2022-12-15T07:56:42.999Z,33.80
2022-12-15T07:59:10.294Z,36.33
2022-12-15T08:01:37.840Z,36.90
2022-12-15T08:04:05.497Z,35.00
2022-12-15T08:06:33.082Z,34.93
2022-12-15T08:09:00.535Z,34.17
2022-12-15T08:11:28.239Z,33.27
2022-12-15T08:14:04.768Z,33.90
2022-12-15T08:16:36.481Z,32.73
2022-12-15T08:19:05.436Z,33.70
2022-12-15T08:21:33.896Z,34.77
2022-12-15T08:24:01.300Z,32.43
2022-12-15T08:26:31.124Z,33.10
2022-12-15T08:29:24.350Z,32.73
2022-12-15T08:31:48.744Z,32.63
2022-12-15T08:34:16.157Z,33.60
2022-12-15T08:36:43.522Z,34.23
2022-12-15T08:39:10.896Z,34.80
2022-12-15T08:41:38.387Z,34.70
2022-12-15T08:44:05.749Z,34.40
2022-12-15T08:46:34.311Z,32.37
2022-12-15T08:49:02.554Z,32.20
2022-12-15T08:51:30.656Z,33.90
2022-12-15T08:53:58.648Z,32.70
2022-12-15T08:56:26.605Z,31.87
2022-12-15T08:58:58.332Z,33.57
2022-12-15T09:01:27.009Z,36.03
2022-12-15T09:03:55.240Z,32.23
2022-12-15T09:06:24.232Z,27.67
2022-12-15T09:08:54.322Z,30.13
2022-12-15T09:11:21.928Z,28.43
2022-12-15T09:13:49.253Z,28.73
2022-12-15T09:16:17.468Z,28.37
2022-12-15T09:18:49.419Z,43.85
2022-12-15T09:21:17.385Z,33.13
2022-12-15T09:23:47.861Z,35.60
2022-12-15T09:26:16.331Z,30.30
2022-12-15T09:28:43.934Z,32.40
2022-12-15T09:31:13.049Z,37.33
2022-12-15T09:33:41.102Z,38.73
2022-12-15T09:36:08.980Z,36.57
2022-12-15T09:38:38.293Z,38.07
2022-12-15T09:41:25.563Z,34.53
2022-12-15T09:44:00.870Z,38.17
2022-12-15T09:46:35.239Z,37.33
2022-12-15T09:49:04.747Z,37.00
2022-12-15T09:51:35.642Z,36.67
2022-12-15T09:54:03.305Z,33.37
2022-12-15T09:56:40.135Z,37.03
2022-12-15T09:59:19.617Z,34.93
2022-12-15T10:02:14.598Z,32.83
2022-12-15T10:04:52.910Z,40.13
2022-12-15T10:07:42.010Z,39.43
2022-12-15T10:10:18.358Z,38.23
2022-12-15T10:15:55.216Z,36.23
2022-12-15T10:19:01.851Z,36.13
2022-12-15T10:21:32.160Z,26.37
2022-12-15T10:24:03.300Z,25.53
2022-12-15T10:26:32.868Z,26.30
2022-12-15T10:29:02.954Z,25.40
2022-12-15T10:31:33.242Z,25.27
2022-12-15T10:34:10.254Z,25.63
2022-12-15T10:36:37.756Z,26.80
2022-12-15T10:39:05.175Z,29.53
2022-12-15T10:41:33.939Z,27.30
2022-12-15T10:44:02.848Z,25.73
2022-12-15T10:46:32.959Z,29.27
2022-12-15T10:49:17.674Z,30.23
2022-12-15T10:51:49.708Z,33.13
2022-12-15T10:54:18.460Z,30.00
2022-12-15T10:56:52.081Z,31.63
2022-12-15T10:59:32.760Z,32.67
2022-12-15T11:02:23.981Z,32.87
2022-12-15T11:04:56.704Z,37.67
2022-12-15T11:07:29.530Z,37.37
2022-12-15T11:10:00.754Z,38.30
2022-12-15T11:12:50.481Z,38.40
2022-12-15T11:15:24.351Z,36.03
2022-12-15T11:17:58.637Z,33.17
2022-12-15T11:20:31.839Z,34.83
2022-12-15T11:23:02.615Z,37.10
2022-12-15T11:25:37.433Z,36.30
2022-12-15T11:28:07.959Z,35.53
2022-12-15T11:30:39.190Z,36.67
2022-12-15T11:33:08.913Z,35.60
2022-12-15T11:35:48.927Z,36.13
2022-12-15T11:38:46.429Z,36.43
2022-12-15T11:41:23.884Z,37.27
2022-12-15T11:43:58.827Z,40.93
2022-12-15T11:46:31.733Z,36.87
2022-12-15T11:49:04.895Z,39.40
2022-12-15T11:51:53.635Z,38.30
2022-12-15T11:54:40.012Z,39.40
2022-12-15T11:57:29.973Z,37.17
2022-12-15T12:00:02.667Z,40.37
2022-12-15T12:02:57.856Z,40.53
2022-12-15T12:05:34.824Z,40.03
2022-12-15T12:08:05.175Z,40.57
2022-12-15T12:10:40.848Z,44.03
2022-12-15T12:13:12.129Z,37.30
2022-12-15T12:15:51.287Z,39.47
2022-12-15T12:18:32.290Z,36.10
2022-12-15T12:21:03.527Z,40.00
2022-12-15T12:23:49.913Z,36.87
2022-12-15T12:26:21.264Z,39.40
2022-12-15T12:28:58.329Z,40.43
2022-12-15T12:31:34.587Z,39.63
2022-12-15T12:34:04.477Z,42.00
2022-12-15T12:36:31.823Z,40.13
2022-12-15T12:38:59.385Z,44.27
2022-12-15T12:41:47.349Z,41.93
2022-12-15T12:44:41.593Z,42.47
2022-12-15T12:47:27.735Z,45.43
2022-12-15T12:49:57.924Z,43.37
2022-12-15T12:52:35.754Z,43.30
2022-12-15T12:55:19.959Z,43.17
2022-12-15T12:57:50.099Z,35.53
2022-12-15T13:00:22.751Z,37.40
2022-12-15T13:02:54.085Z,44.03
2022-12-15T13:05:31.353Z,39.10
2022-12-15T13:08:13.657Z,43.80
2022-12-15T13:10:42.401Z,41.60
2022-12-15T13:13:12.722Z,40.43
2022-12-15T13:15:45.754Z,42.03
2022-12-15T13:18:23.050Z,41.20
2022-12-15T13:20:51.492Z,40.97
2022-12-15T13:23:24.864Z,39.03
2022-12-15T13:25:59.051Z,45.20
2022-12-15T13:28:28.309Z,40.87
2022-12-15T13:31:22.805Z,40.63
2022-12-15T13:33:50.324Z,35.13
2022-12-15T13:36:40.381Z,37.40
2022-12-15T13:39:13.519Z,35.40
2022-12-15T13:42:15.156Z,34.43
2022-12-15T13:44:52.027Z,31.10
2022-12-15T13:47:19.434Z,35.73
2022-12-15T13:50:00.853Z,35.60
2022-12-15T13:53:16.683Z,34.70
2022-12-15T13:55:27.643Z,34.27
2022-12-15T13:57:57.826Z,36.10
2022-12-15T14:00:25.383Z,37.60
2022-12-15T14:02:56.908Z,36.07
2022-12-15T14:05:26.206Z,34.60
2022-12-15T14:07:54.965Z,37.47
2022-12-15T14:10:28.834Z,35.60
2022-12-15T14:12:59.075Z,35.33
2022-12-15T14:15:32.664Z,35.07
2022-12-15T14:18:01.490Z,31.87
2022-12-15T14:20:30.914Z,33.47
2022-12-15T14:22:58.670Z,35.57
2022-12-15T14:25:29.516Z,33.20
2022-12-15T14:27:57.610Z,33.87
2022-12-15T14:30:33.123Z,32.50
2022-12-15T14:33:07.877Z,34.93
2022-12-15T14:35:50.077Z,31.87
2022-12-15T14:38:18.910Z,32.53
2022-12-15T14:40:47.185Z,34.63
2022-12-15T14:43:24.596Z,33.27
2022-12-15T14:45:55.229Z,32.07
2022-12-15T14:48:45.089Z,25.37
2022-12-15T14:51:14.185Z,30.73
2022-12-15T14:53:42.928Z,29.40
2022-12-15T14:56:14.764Z,30.33
2022-12-15T14:58:42.304Z,29.80
2022-12-15T15:01:23.043Z,32.87
2022-12-15T15:03:04.319Z,41.77
2022-12-15T15:03:57.133Z,32.13
2022-12-15T15:06:28.530Z,32.23
2022-12-15T15:08:56.145Z,33.03
2022-12-15T15:11:29.783Z,30.80
2022-12-15T15:13:59.149Z,30.87
2022-12-15T15:16:26.921Z,30.20
2022-12-15T15:18:55.930Z,31.53
2022-12-15T15:21:24.863Z,28.10
2022-12-15T15:24:10.695Z,30.17
2022-12-15T15:26:38.111Z,30.03
2022-12-15T15:29:25.762Z,31.80
2022-12-15T15:32:05.486Z,29.30
2022-12-15T15:34:33.672Z,28.87
2022-12-15T15:37:02.609Z,28.37
2022-12-15T15:39:29.962Z,26.60
2022-12-15T15:41:57.345Z,28.07
2022-12-15T15:44:24.785Z,24.57
2022-12-15T15:46:52.889Z,26.57
2022-12-15T15:49:21.715Z,27.33
2022-12-15T15:51:49.501Z,29.50
2022-12-15T15:54:23.064Z,28.40
2022-12-15T15:56:50.420Z,26.83
2022-12-15T15:59:20.893Z,29.70
2022-12-15T16:01:53.733Z,26.93
2022-12-15T16:04:21.338Z,30.07
2022-12-15T16:06:49.716Z,27.97
2022-12-15T16:09:17.616Z,28.90
2022-12-15T16:11:46.269Z,29.73
2022-12-15T16:14:14.346Z,31.27
2022-12-15T16:16:42.064Z,29.50
2022-12-15T16:19:09.625Z,29.80
2022-12-15T16:21:37.293Z,32.83
2022-12-15T16:24:14.126Z,30.93
2022-12-15T16:26:45.238Z,30.77
2022-12-15T16:29:16.640Z,26.70
2022-12-15T16:31:45.742Z,29.53
2022-12-15T16:34:14.120Z,31.90
2022-12-15T16:36:41.567Z,30.77
2022-12-15T16:39:24.338Z,30.77
2022-12-15T16:41:53.808Z,30.90
2022-12-15T16:44:21.359Z,30.87
2022-12-15T16:46:48.707Z,29.97
2022-12-15T16:49:16.155Z,29.77
2022-12-15T16:51:45.112Z,28.07
2022-12-15T16:54:25.169Z,30.23
2022-12-15T16:56:53.771Z,32.03
2022-12-15T16:59:37.619Z,31.93
2022-12-15T17:02:24.979Z,30.33
2022-12-15T17:04:55.187Z,30.27
2022-12-15T17:07:23.871Z,31.10
2022-12-15T17:09:53.565Z,34.17
2022-12-15T17:12:20.914Z,33.53
2022-12-15T17:14:48.394Z,33.13
2022-12-15T17:17:16.969Z,32.17
2022-12-15T17:20:11.763Z,36.80
2022-12-15T17:22:32.876Z,33.00
2022-12-15T17:25:00.248Z,32.20
2022-12-15T17:27:28.998Z,33.70
2022-12-15T17:29:57.201Z,35.77
2022-12-15T17:32:24.704Z,34.37
2022-12-15T17:34:52.165Z,34.20
2022-12-15T17:37:19.532Z,35.00
2022-12-15T17:39:51.283Z,35.73
2022-12-15T17:42:19.976Z,36.87
2022-12-15T17:44:48.319Z,35.93
2022-12-15T17:47:16.707Z,34.83
2022-12-15T17:49:44.284Z,36.00
2022-12-15T17:52:23.026Z,36.27
2022-12-15T17:54:51.593Z,33.63
2022-12-15T17:57:19.450Z,34.37
2022-12-15T17:59:47.534Z,33.07
2022-12-15T18:02:15.692Z,35.27
2022-12-15T18:04:49.188Z,34.37
2022-12-15T18:07:23.663Z,35.33
2022-12-15T18:09:51.922Z,35.37
2022-12-15T18:12:20.410Z,34.23
2022-12-15T18:14:47.958Z,37.20
2022-12-15T18:17:15.523Z,35.33
2022-12-15T18:19:42.905Z,35.93
2022-12-15T18:22:30.514Z,33.40
2022-12-15T18:24:57.938Z,34.77
2022-12-15T18:27:27.348Z,34.70
2022-12-15T18:29:55.102Z,33.03
2022-12-15T18:32:24.560Z,33.87
2022-12-15T18:34:53.703Z,44.10
2022-12-15T18:37:23.127Z,34.57
2022-12-15T18:39:50.957Z,34.83
2022-12-15T18:42:19.839Z,33.07
2022-12-15T18:44:52.338Z,31.27
2022-12-15T18:47:21.000Z,33.43
2022-12-15T18:49:48.478Z,34.53
2022-12-15T18:52:20.089Z,32.90
2022-12-15T18:54:51.399Z,34.87
2022-12-15T18:57:32.645Z,33.77
2022-12-15T19:00:08.040Z,34.77
2022-12-15T19:02:35.539Z,34.50
2022-12-15T19:05:03.452Z,35.13
2022-12-15T19:07:30.958Z,35.03
2022-12-15T19:09:58.237Z,34.43
2022-12-15T19:12:28.720Z,34.47
2022-12-15T19:14:56.194Z,35.47
2022-12-15T19:17:42.844Z,36.97
2022-12-15T19:20:51.963Z,35.23
2022-12-15T19:23:19.378Z,35.77
2022-12-15T19:25:47.873Z,35.33
2022-12-15T19:28:25.075Z,33.93
2022-12-15T19:30:53.021Z,32.87
2022-12-15T19:33:21.302Z,33.47
2022-12-15T19:35:51.086Z,34.90
2022-12-15T19:38:24.375Z,34.30
2022-12-15T19:40:53.482Z,35.40
2022-12-15T19:43:24.240Z,37.03
2022-12-15T19:45:53.781Z,34.73
2022-12-15T19:48:23.972Z,34.17
2022-12-15T19:50:52.521Z,34.20
2022-12-15T19:53:30.111Z,35.17
2022-12-15T19:55:59.720Z,31.60
2022-12-15T19:58:31.391Z,31.70
2022-12-15T20:01:09.027Z,31.20
2022-12-15T20:03:37.055Z,34.73
2022-12-15T20:06:05.439Z,34.97
2022-12-15T20:08:36.838Z,31.63
2022-12-15T20:11:05.283Z,31.70
2022-12-15T20:13:33.072Z,30.20
2022-12-15T20:16:00.734Z,32.20
2022-12-15T20:18:48.959Z,32.20
2022-12-15T20:21:22.758Z,30.13
2022-12-15T20:23:52.360Z,31.03
2022-12-15T20:26:21.532Z,32.23
2022-12-15T20:28:49.421Z,35.97
2022-12-15T20:31:17.948Z,30.70
2022-12-15T20:33:45.871Z,30.27
2022-12-15T20:36:15.338Z,30.87
2022-12-15T20:38:44.396Z,31.03
2022-12-15T20:41:18.937Z,30.17
2022-12-15T20:43:47.285Z,28.27
2022-12-15T20:46:16.945Z,30.57
2022-12-15T20:48:45.103Z,29.47
2022-12-15T20:51:23.857Z,29.73
2022-12-15T20:53:54.456Z,28.13
2022-12-15T20:56:23.548Z,29.00
2022-12-15T20:58:55.212Z,26.53
2022-12-15T21:01:29.042Z,27.13
2022-12-15T21:03:58.288Z,26.63
2022-12-15T21:06:26.621Z,26.90
2022-12-15T21:08:56.423Z,28.63
2022-12-15T21:11:25.854Z,29.13
2022-12-15T21:13:54.727Z,29.53
2022-12-15T21:16:23.358Z,28.00
2022-12-15T21:19:18.608Z,28.43
2022-12-15T21:21:39.929Z,28.43
2022-12-15T21:24:23.016Z,29.80
2022-12-15T21:26:52.902Z,30.27
2022-12-15T21:29:22.749Z,28.33
2022-12-15T21:31:51.798Z,29.67
2022-12-15T21:34:19.472Z,29.83
2022-12-15T21:36:49.716Z,29.97
2022-12-15T21:39:24.230Z,28.77
2022-12-15T21:41:51.780Z,29.03
2022-12-15T21:44:19.445Z,28.83
2022-12-15T21:46:48.211Z,28.23
2022-12-15T21:49:17.638Z,28.60
2022-12-15T21:51:52.075Z,29.60
2022-12-15T21:54:24.769Z,30.23
2022-12-15T21:56:55.171Z,39.03
2022-12-15T21:59:24.102Z,40.10
2022-12-15T22:01:52.137Z,32.30
2022-12-15T22:04:21.276Z,31.47
2022-12-15T22:06:50.546Z,31.07
2022-12-15T22:09:18.791Z,30.83
2022-12-15T22:11:47.471Z,30.83
2022-12-15T22:14:24.673Z,31.87
2022-12-15T22:16:52.247Z,31.40
2022-12-15T22:19:19.806Z,31.23
2022-12-15T22:21:47.119Z,32.07
2022-12-15T22:24:14.556Z,31.73
2022-12-15T22:26:42.283Z,33.07
2022-12-15T22:29:18.021Z,32.43
2022-12-15T22:31:45.426Z,33.17
2022-12-15T22:34:14.753Z,34.07
2022-12-15T22:36:42.343Z,34.70
2022-12-15T22:39:11.249Z,37.63
2022-12-15T22:41:45.683Z,35.67
2022-12-15T22:44:19.221Z,35.80
2022-12-15T22:46:46.607Z,36.37
2022-12-15T22:49:15.998Z,35.07
